Terminal Aerodrome Forecast
Issued by NWS

Home | Current Version | Previous Version | Text Only | Print | Product List | Glossary On
Versions: 1 2 3 4 5 6 7 8 9 10 11 12 13 14 15 16 17
144
FTUS43 KOAX 262320
TAFCDR
TAF
KCDR 262320Z 2700/2724 04006KT P6SM VCSH BKN090
      TEMPO 2700/2702 OVC022
     FM270400 VRB03KT P6SM BKN060
     FM271500 18007KT P6SM BKN045
     FM271900 13009KT P6SM BKN080=

USA.gov is the U.S. government's official web portal to all federal, state and local government web resources and services.